Terminal Aerodrome Forecast
Issued by NWS Charleston, WV

Current Version | Previous Version | Graphics & Text | Print | Product List | Glossary On
Versions: 1 2 3 4 5 6 7 8 9 10 11 12 13 14 15 16 17 18 19 20 21 22 23 24 25 26
000
FTUS41 KRLX 031413 AAA
TAFBKW
TAF AMD
KBKW 031413Z 0314/0412 15005KT 6SM SHRA BR OVC035
     FM031900 20003KT 5SM SHRA VCTS OVC015CB
     FM040200 25005KT 6SM BR BKN010
     FM040600 24006KT 6SM BR BKN006=

USA.gov is the U.S. government's official web portal to all federal, state and local government web resources and services.